createdAt,value
2017-02-24T00:00:22.967Z,9.4
2017-02-24T00:01:22.999Z,9.44
2017-02-24T00:02:22.993Z,9.44
2017-02-24T00:03:23.019Z,9.4
2017-02-24T00:04:23.030Z,9.44
2017-02-24T00:05:23.042Z,9.43
2017-02-24T00:06:23.064Z,9.48
2017-02-24T00:07:23.086Z,9.47
2017-02-24T00:08:23.088Z,9.46
2017-02-24T00:09:23.111Z,9.44
2017-02-24T00:10:23.134Z,9.41
2017-02-24T00:11:23.143Z,9.43
2017-02-24T00:12:23.142Z,9.37
2017-02-24T00:13:23.157Z,9.37
2017-02-24T00:14:22.778Z,9.39
2017-02-24T00:15:23.185Z,9.39
2017-02-24T00:16:23.220Z,9.37
2017-02-24T00:17:23.219Z,9.37
2017-02-24T00:18:23.231Z,9.37
2017-02-24T00:19:23.261Z,9.36
2017-02-24T00:20:23.265Z,9.36
2017-02-24T00:21:23.275Z,9.36
2017-02-24T00:22:23.296Z,9.36
2017-02-24T00:23:23.329Z,9.32
2017-02-24T00:24:23.321Z,9.4
2017-02-24T00:25:23.338Z,9.32
2017-02-24T00:26:23.355Z,9.34
2017-02-24T00:27:23.399Z,9.28
2017-02-24T00:28:23.425Z,9.25
2017-02-24T00:29:23.409Z,9.26
2017-02-24T00:30:23.417Z,9.34
2017-02-24T00:31:23.438Z,9.37
2017-02-24T00:32:23.447Z,9.34
2017-02-24T00:33:23.467Z,9.32
2017-02-24T00:34:23.475Z,9.28
2017-02-24T00:35:23.498Z,9.34
2017-02-24T00:36:23.500Z,9.32
2017-02-24T00:37:23.523Z,9.34
2017-02-24T00:38:23.542Z,9.31
2017-02-24T00:39:23.546Z,9.34
2017-02-24T00:40:23.560Z,9.39
2017-02-24T00:41:23.572Z,9.37
2017-02-24T00:42:23.591Z,9.36
2017-02-24T00:43:23.607Z,9.36
2017-02-24T00:44:23.628Z,9.39
2017-02-24T00:45:23.640Z,9.36
2017-02-24T00:46:23.650Z,9.31
2017-02-24T00:47:23.671Z,9.34
2017-02-24T00:48:23.678Z,9.32
2017-02-24T00:49:23.715Z,9.36
2017-02-24T00:50:23.320Z,9.36
2017-02-24T00:51:23.328Z,9.36
2017-02-24T00:52:23.735Z,9.4
2017-02-24T00:53:23.757Z,9.34
2017-02-24T00:54:23.775Z,9.37
2017-02-24T00:55:23.777Z,9.4
2017-02-24T00:56:23.796Z,9.44
2017-02-24T00:57:23.807Z,9.34
2017-02-24T00:58:23.823Z,9.4
2017-02-24T00:59:23.879Z,9.34
2017-02-24T01:00:23.888Z,9.34
2017-02-24T01:01:23.878Z,9.34
2017-02-24T01:02:24.005Z,9.43
2017-02-24T01:03:23.989Z,9.36
2017-02-24T01:04:23.989Z,9.43
2017-02-24T01:05:23.998Z,9.39
2017-02-24T01:06:24.029Z,9.4
2017-02-24T01:07:24.038Z,9.46
2017-02-24T01:08:24.047Z,9.44
2017-02-24T01:09:24.057Z,9.44
2017-02-24T01:10:24.055Z,9.47
2017-02-24T01:11:24.063Z,9.46
2017-02-24T01:12:24.070Z,9.48
2017-02-24T01:13:24.082Z,9.47
2017-02-24T01:14:24.060Z,9.46
2017-02-24T01:15:24.073Z,9.46
2017-02-24T01:16:24.106Z,9.44
2017-02-24T01:17:24.108Z,9.41
2017-02-24T01:18:24.129Z,9.4
2017-02-24T01:19:23.753Z,9.41
2017-02-24T01:20:24.158Z,9.44
2017-02-24T01:21:24.163Z,9.43
2017-02-24T01:22:24.177Z,9.44
2017-02-24T01:23:24.201Z,9.46
2017-02-24T01:24:24.212Z,9.44
2017-02-24T01:25:24.223Z,9.41
2017-02-24T01:26:23.925Z,9.41
2017-02-24T01:27:24.250Z,9.44
2017-02-24T01:28:24.275Z,9.41
2017-02-24T01:29:24.278Z,9.46
2017-02-24T01:30:24.300Z,9.43
2017-02-24T01:31:24.321Z,9.41
2017-02-24T01:32:24.412Z,9.46
2017-02-24T01:33:24.338Z,9.48
2017-02-24T01:34:24.357Z,9.44
2017-02-24T01:35:24.381Z,9.46
2017-02-24T01:36:24.385Z,9.46
2017-02-24T01:37:24.404Z,9.5
2017-02-24T01:38:24.421Z,9.46
2017-02-24T01:39:24.434Z,9.44
2017-02-24T01:40:24.440Z,9.44
2017-02-24T01:41:24.478Z,9.46
2017-02-24T01:42:24.470Z,9.43
2017-02-24T01:43:24.523Z,9.39
2017-02-24T01:44:24.507Z,9.46
2017-02-24T01:45:24.516Z,9.39
2017-02-24T01:46:24.138Z,9.4
2017-02-24T01:47:24.544Z,9.41
2017-02-24T01:48:24.560Z,9.36
2017-02-24T01:49:24.570Z,9.31
2017-02-24T01:50:24.585Z,9.34
2017-02-24T01:51:24.603Z,9.21
2017-02-24T01:52:24.620Z,9.26
2017-02-24T01:53:24.636Z,9.22
2017-02-24T01:54:24.863Z,9.23
2017-02-24T01:55:24.866Z,9.23
2017-02-24T01:56:24.867Z,9.23
2017-02-24T01:57:24.883Z,9.25
2017-02-24T01:58:25.012Z,9.28
2017-02-24T01:59:24.881Z,9.29
2017-02-24T02:00:24.817Z,9.23
2017-02-24T02:01:24.907Z,9.26
2017-02-24T02:02:24.946Z,9.25
2017-02-24T02:03:25.012Z,9.26
2017-02-24T02:04:24.954Z,9.25
2017-02-24T02:05:24.569Z,9.25
2017-02-24T02:06:24.974Z,9.22
2017-02-24T02:07:24.984Z,9.26
2017-02-24T02:08:25.116Z,9.22
2017-02-24T02:09:24.994Z,9.23
2017-02-24T02:10:24.997Z,9.25
2017-02-24T02:11:24.988Z,9.14
2017-02-24T02:12:24.921Z,9.25
2017-02-24T02:13:24.933Z,9.22
2017-02-24T02:14:24.953Z,9.13
2017-02-24T02:15:24.971Z,9.23
2017-02-24T02:16:24.983Z,9.19
2017-02-24T02:17:24.982Z,9.18
2017-02-24T02:18:25.014Z,9.11
2017-02-24T02:19:25.026Z,9.21
2017-02-24T02:20:25.038Z,9.19
2017-02-24T02:21:25.041Z,9.16
2017-02-24T02:22:25.074Z,9.11
2017-02-24T02:23:25.077Z,9.14
2017-02-24T02:24:25.100Z,9.23
2017-02-24T02:25:25.126Z,9.1
2017-02-24T02:26:25.117Z,9.1
2017-02-24T02:27:25.126Z,9.14
2017-02-24T02:28:25.146Z,9.13
2017-02-24T02:29:25.176Z,9.14
2017-02-24T02:30:25.169Z,9.1
2017-02-24T02:31:25.195Z,9.1
2017-02-24T02:32:25.217Z,9.13
2017-02-24T02:33:25.221Z,9.11
2017-02-24T02:34:24.856Z,9.1
2017-02-24T02:35:24.873Z,9.1
2017-02-24T02:36:24.990Z,9.04
2017-02-24T02:37:24.987Z,9.06
2017-02-24T02:38:24.996Z,9.1
2017-02-24T02:39:25.400Z,9.1
2017-02-24T02:40:25.408Z,9.16
2017-02-24T02:41:24.938Z,9.06
2017-02-24T02:42:25.359Z,9.08
2017-02-24T02:43:24.984Z,8.97
2017-02-24T02:44:25.402Z,9.06
2017-02-24T02:45:25.007Z,9.08
2017-02-24T02:46:25.445Z,9.03
2017-02-24T02:47:25.437Z,9.13
2017-02-24T02:48:25.446Z,9.13
2017-02-24T02:49:25.478Z,9
2017-02-24T02:50:25.069Z,9
2017-02-24T02:51:25.484Z,8.95
2017-02-24T02:52:25.576Z,9
2017-02-24T02:53:25.127Z,9.06
2017-02-24T02:54:25.564Z,9.03
2017-02-24T02:55:25.583Z,8.94
2017-02-24T02:56:25.602Z,9.02
2017-02-24T02:57:25.175Z,8.95
2017-02-24T02:58:25.705Z,8.95
2017-02-24T02:59:25.618Z,8.99
2017-02-24T03:00:25.626Z,8.99
2017-02-24T03:01:25.636Z,8.99
2017-02-24T03:02:25.651Z,8.92
2017-02-24T03:03:25.678Z,8.87
2017-02-24T03:04:25.667Z,8.94
2017-02-24T03:05:25.718Z,8.95
2017-02-24T03:06:25.698Z,8.91
2017-02-24T03:07:25.317Z,8.97
2017-02-24T03:08:25.749Z,8.94
2017-02-24T03:09:25.348Z,8.92
2017-02-24T03:10:25.762Z,8.92
2017-02-24T03:11:25.774Z,8.87
2017-02-24T03:12:25.794Z,8.94
2017-02-24T03:13:25.815Z,9.03
2017-02-24T03:14:25.815Z,8.99
2017-02-24T03:15:25.852Z,8.99
2017-02-24T03:16:25.839Z,8.92
2017-02-24T03:17:25.871Z,8.89
2017-02-24T03:18:25.877Z,8.94
2017-02-24T03:19:25.888Z,8.97
2017-02-24T03:20:25.508Z,8.88
2017-02-24T03:21:25.916Z,8.92
2017-02-24T03:22:25.931Z,8.88
2017-02-24T03:23:25.963Z,8.89
2017-02-24T03:24:25.959Z,8.89
2017-02-24T03:25:25.971Z,8.84
2017-02-24T03:26:26.001Z,8.89
2017-02-24T03:27:26.007Z,8.91
2017-02-24T03:28:26.019Z,8.92
2017-02-24T03:29:26.039Z,8.78
2017-02-24T03:30:26.043Z,8.78
2017-02-24T03:31:26.079Z,8.82
2017-02-24T03:32:26.092Z,8.82
2017-02-24T03:33:26.095Z,8.81
2017-02-24T03:34:26.102Z,8.78
2017-02-24T03:35:26.131Z,8.81
2017-02-24T03:36:26.155Z,8.84
2017-02-24T03:37:26.154Z,8.81
2017-02-24T03:38:26.229Z,8.74
2017-02-24T03:39:26.237Z,8.76
2017-02-24T03:40:26.236Z,8.79
2017-02-24T03:41:26.326Z,8.84
2017-02-24T03:42:26.326Z,8.81
2017-02-24T03:43:26.350Z,8.78
2017-02-24T03:44:26.348Z,8.81
2017-02-24T03:45:26.369Z,8.67
2017-02-24T03:46:26.379Z,8.74
2017-02-24T03:47:26.398Z,8.79
2017-02-24T03:48:26.388Z,8.74
2017-02-24T03:49:26.411Z,8.76
2017-02-24T03:50:26.417Z,8.78
2017-02-24T03:51:26.451Z,8.74
2017-02-24T03:52:26.458Z,8.7
2017-02-24T03:53:26.390Z,8.7
2017-02-24T03:54:26.390Z,8.69
2017-02-24T03:55:26.405Z,8.71
2017-02-24T03:56:26.431Z,8.74
2017-02-24T03:57:26.431Z,8.71
2017-02-24T03:58:26.528Z,8.69
2017-02-24T03:59:26.543Z,8.7
2017-02-24T04:00:26.212Z,8.69
2017-02-24T04:01:26.690Z,8.69
2017-02-24T04:02:26.652Z,8.71
2017-02-24T04:03:26.805Z,8.7
2017-02-24T04:04:26.672Z,8.69
2017-02-24T04:05:26.678Z,8.66
2017-02-24T04:06:26.690Z,8.63
2017-02-24T04:07:26.701Z,8.56
2017-02-24T04:08:26.885Z,8.61
2017-02-24T04:09:26.704Z,8.55
2017-02-24T04:10:26.715Z,8.48
2017-02-24T04:11:26.718Z,8.52
2017-02-24T04:12:26.728Z,8.53
2017-02-24T04:13:26.870Z,8.52
2017-02-24T04:14:26.801Z,8.48
2017-02-24T04:15:26.787Z,8.53
2017-02-24T04:16:26.795Z,8.51
2017-02-24T04:17:26.804Z,8.44
2017-02-24T04:18:26.872Z,8.46
2017-02-24T04:19:26.808Z,8.41
2017-02-24T04:20:26.916Z,8.37
2017-02-24T04:21:26.893Z,8.3
2017-02-24T04:22:26.938Z,8.37
2017-02-24T04:23:26.899Z,8.37
2017-02-24T04:24:26.941Z,8.33
2017-02-24T04:25:26.919Z,8.31
2017-02-24T04:26:26.842Z,8.33
2017-02-24T04:27:26.869Z,8.28
2017-02-24T04:28:26.919Z,8.23
2017-02-24T04:29:26.882Z,8.2
2017-02-24T04:30:26.898Z,8.2
2017-02-24T04:31:26.931Z,8.23
2017-02-24T04:32:26.925Z,8.19
2017-02-24T04:33:26.985Z,8.19
2017-02-24T04:34:26.968Z,8.18
2017-02-24T04:35:27.087Z,8.1
2017-02-24T04:36:26.975Z,8.12
2017-02-24T04:37:26.998Z,8.03
2017-02-24T04:38:27.013Z,8.06
2017-02-24T04:39:27.028Z,8.08
2017-02-24T04:40:27.057Z,8.13
2017-02-24T04:41:27.046Z,8.08
2017-02-24T04:42:27.067Z,8.03
2017-02-24T04:43:27.107Z,8.03
2017-02-24T04:44:27.209Z,7.95
2017-02-24T04:45:27.134Z,7.94
2017-02-24T04:46:27.122Z,7.9
2017-02-24T04:47:27.229Z,7.88
2017-02-24T04:48:27.149Z,8
2017-02-24T04:49:27.160Z,7.91
2017-02-24T04:50:27.177Z,7.82
2017-02-24T04:51:27.189Z,7.83
2017-02-24T04:52:27.201Z,7.8
2017-02-24T04:53:27.228Z,7.82
2017-02-24T04:54:27.230Z,7.82
2017-02-24T04:55:27.266Z,7.77
2017-02-24T04:56:27.275Z,7.79
2017-02-24T04:57:27.284Z,7.73
2017-02-24T04:58:27.376Z,7.77
2017-02-24T04:59:27.315Z,7.69
2017-02-24T05:00:27.318Z,7.72
2017-02-24T05:01:27.378Z,7.7
2017-02-24T05:02:27.377Z,7.6
2017-02-24T05:03:27.377Z,7.7
2017-02-24T05:04:26.979Z,7.58
2017-02-24T05:05:27.389Z,7.63
2017-02-24T05:06:27.396Z,7.51
2017-02-24T05:07:27.424Z,7.51
2017-02-24T05:08:27.539Z,7.5
2017-02-24T05:09:27.483Z,7.4
2017-02-24T05:10:27.481Z,7.48
2017-02-24T05:11:27.475Z,7.43
2017-02-24T05:12:27.497Z,7.45
2017-02-24T05:13:27.497Z,7.45
2017-02-24T05:14:27.512Z,7.43
2017-02-24T05:15:27.534Z,7.47
2017-02-24T05:16:27.535Z,7.45
2017-02-24T05:17:27.572Z,7.45
2017-02-24T05:18:27.570Z,7.39
2017-02-24T05:19:27.581Z,7.43
2017-02-24T05:20:27.589Z,7.39
2017-02-24T05:21:27.629Z,7.43
2017-02-24T05:22:27.613Z,7.39
2017-02-24T05:23:27.647Z,7.5
2017-02-24T05:24:27.646Z,7.42
2017-02-24T05:25:27.653Z,7.38
2017-02-24T05:26:27.670Z,7.32
2017-02-24T05:27:27.687Z,7.31
2017-02-24T05:28:27.705Z,7.32
2017-02-24T05:29:27.719Z,7.33
2017-02-24T05:30:27.736Z,7.33
2017-02-24T05:31:27.734Z,7.35
2017-02-24T05:32:27.751Z,7.32
2017-02-24T05:33:27.768Z,7.31
2017-02-24T05:34:27.803Z,7.24
2017-02-24T05:35:27.796Z,7.13
2017-02-24T05:36:27.817Z,7.17
2017-02-24T05:37:27.813Z,7.21
2017-02-24T05:38:27.449Z,7.17
2017-02-24T05:39:27.453Z,7.18
2017-02-24T05:40:27.470Z,7.17
2017-02-24T05:41:27.480Z,7.21
2017-02-24T05:42:27.486Z,7.23
2017-02-24T05:43:27.498Z,7.14
2017-02-24T05:44:27.509Z,7.15
2017-02-24T05:45:27.933Z,7.17
2017-02-24T05:46:27.935Z,7.17
2017-02-24T05:47:27.567Z,7.18
2017-02-24T05:48:27.589Z,7.15
2017-02-24T05:49:27.607Z,7.18
2017-02-24T05:50:27.986Z,7.23
2017-02-24T05:51:27.998Z,7.17
2017-02-24T05:52:27.634Z,7.2
2017-02-24T05:53:27.635Z,7.18
2017-02-24T05:54:28.040Z,7.17
2017-02-24T05:55:28.064Z,7.21
2017-02-24T05:56:28.078Z,7.15
2017-02-24T05:57:28.089Z,7.15
2017-02-24T05:58:28.101Z,7.13
2017-02-24T05:59:28.134Z,7.18
2017-02-24T06:00:28.127Z,7.18
2017-02-24T06:01:28.133Z,7.11
2017-02-24T06:02:28.169Z,7.17
2017-02-24T06:03:28.166Z,7.15
2017-02-24T06:04:28.175Z,7.18
2017-02-24T06:05:28.223Z,7.2
2017-02-24T06:06:28.209Z,7.15
2017-02-24T06:07:28.226Z,7.18
2017-02-24T06:08:28.245Z,7.11
2017-02-24T06:09:28.248Z,7.14
2017-02-24T06:10:28.250Z,7.15
2017-02-24T06:11:28.261Z,7.15
2017-02-24T06:12:28.289Z,7.14
2017-02-24T06:13:28.289Z,7.17
2017-02-24T06:14:28.304Z,7.17
2017-02-24T06:15:28.316Z,7.11
2017-02-24T06:16:28.329Z,7.06
2017-02-24T06:17:28.343Z,7.13
2017-02-24T06:18:28.355Z,7.05
2017-02-24T06:19:28.385Z,7.1
2017-02-24T06:20:28.379Z,7.06
2017-02-24T06:21:28.404Z,7.06
2017-02-24T06:22:28.415Z,7.11
2017-02-24T06:23:28.421Z,7.06
2017-02-24T06:24:28.445Z,7.03
2017-02-24T06:25:28.472Z,7.07
2017-02-24T06:26:28.480Z,7.05
2017-02-24T06:27:28.477Z,7.05
2017-02-24T06:28:28.484Z,7.02
2017-02-24T06:29:28.500Z,7.05
2017-02-24T06:30:28.526Z,7
2017-02-24T06:31:28.524Z,7.1
2017-02-24T06:32:28.540Z,7.03
2017-02-24T06:33:28.562Z,7.05
2017-02-24T06:34:28.564Z,7.07
2017-02-24T06:35:28.599Z,7
2017-02-24T06:36:28.603Z,6.99
2017-02-24T06:37:28.628Z,7.05
2017-02-24T06:38:28.612Z,6.99
2017-02-24T06:39:28.656Z,7.03
2017-02-24T06:40:28.647Z,6.88
2017-02-24T06:41:28.678Z,6.93
2017-02-24T06:42:28.678Z,6.92
2017-02-24T06:43:28.679Z,6.92
2017-02-24T06:44:28.694Z,6.92
2017-02-24T06:45:28.734Z,6.92
2017-02-24T06:46:28.791Z,6.93
2017-02-24T06:47:28.736Z,6.99
2017-02-24T06:48:28.762Z,6.89
2017-02-24T06:49:28.792Z,6.93
2017-02-24T06:50:28.785Z,6.97
2017-02-24T06:51:28.407Z,6.93
2017-02-24T06:52:28.816Z,6.95
2017-02-24T06:53:28.511Z,6.95
2017-02-24T06:54:28.828Z,6.93
2017-02-24T06:55:28.440Z,6.89
2017-02-24T06:56:28.860Z,6.89
2017-02-24T06:57:28.861Z,6.95
2017-02-24T06:58:28.884Z,6.93
2017-02-24T06:59:28.886Z,6.97
2017-02-24T07:00:28.905Z,6.96
2017-02-24T07:01:28.923Z,6.88
2017-02-24T07:02:28.932Z,6.92
2017-02-24T07:03:28.938Z,6.95
2017-02-24T07:04:29.055Z,6.92
2017-02-24T07:05:28.979Z,6.96
2017-02-24T07:06:29.111Z,7.02
2017-02-24T07:07:29.095Z,7.06
2017-02-24T07:08:29.016Z,6.96
2017-02-24T07:09:29.033Z,7.03
2017-02-24T07:10:28.767Z,7.03
2017-02-24T07:11:29.075Z,7.05
2017-02-24T07:12:28.674Z,7.06
2017-02-24T07:13:29.071Z,7.06
2017-02-24T07:14:28.712Z,7.06
2017-02-24T07:15:29.115Z,7.03
2017-02-24T07:16:29.110Z,7
2017-02-24T07:17:28.729Z,7.06
2017-02-24T07:18:29.152Z,6.99
2017-02-24T07:19:29.156Z,7.05
2017-02-24T07:20:28.766Z,7.07
2017-02-24T07:21:29.250Z,6.99
2017-02-24T07:22:29.206Z,7.02
2017-02-24T07:23:29.211Z,7.05
2017-02-24T07:24:29.217Z,7.06
2017-02-24T07:25:29.225Z,7.02
2017-02-24T07:26:29.325Z,7.02
2017-02-24T07:27:29.332Z,7.03
2017-02-24T07:28:29.337Z,7
2017-02-24T07:29:29.277Z,7.05
2017-02-24T07:30:29.292Z,7.06
2017-02-24T07:31:29.306Z,7.05
2017-02-24T07:32:28.924Z,7
2017-02-24T07:33:29.341Z,7.02
2017-02-24T07:34:29.338Z,7.05
2017-02-24T07:35:29.368Z,7.02
2017-02-24T07:36:29.369Z,7.07
2017-02-24T07:37:29.389Z,7.02
2017-02-24T07:38:29.402Z,7.02
2017-02-24T07:39:29.548Z,7
2017-02-24T07:40:29.429Z,7.06
2017-02-24T07:41:29.442Z,7.13
2017-02-24T07:42:29.455Z,7.05
2017-02-24T07:43:29.460Z,7.02
2017-02-24T07:44:29.507Z,7.05
2017-02-24T07:45:29.518Z,7.06
2017-02-24T07:46:29.496Z,7.03
2017-02-24T07:47:29.511Z,7.06
2017-02-24T07:48:29.523Z,7.03
2017-02-24T07:49:29.152Z,7.1
2017-02-24T07:50:29.570Z,7.05
2017-02-24T07:51:29.568Z,7.11
2017-02-24T07:52:29.587Z,7.06
2017-02-24T07:53:29.704Z,7.02
2017-02-24T07:54:29.633Z,7
2017-02-24T07:55:29.646Z,7.1
2017-02-24T07:56:29.273Z,7.02
2017-02-24T07:57:29.647Z,7.02
2017-02-24T07:58:29.657Z,7.11
2017-02-24T07:59:29.276Z,7.11
2017-02-24T08:00:29.680Z,7.13
2017-02-24T08:01:29.698Z,7.13
2017-02-24T08:02:29.707Z,7.14
2017-02-24T08:03:29.823Z,7.14
2017-02-24T08:04:29.728Z,7.15
2017-02-24T08:05:29.762Z,7.17
2017-02-24T08:06:29.760Z,7.17
2017-02-24T08:07:29.777Z,7.07
2017-02-24T08:08:29.842Z,7.18
2017-02-24T08:09:29.792Z,7.1
2017-02-24T08:10:29.801Z,7.17
2017-02-24T08:11:29.828Z,7.21
2017-02-24T08:12:29.823Z,7.13
2017-02-24T08:13:29.457Z,7.17
2017-02-24T08:14:29.865Z,7.24
2017-02-24T08:15:29.911Z,7.18
2017-02-24T08:16:29.997Z,7.17
2017-02-24T08:17:29.528Z,7.2
2017-02-24T08:18:30.024Z,7.24
2017-02-24T08:19:30.005Z,7.32
2017-02-24T08:20:29.930Z,7.28
2017-02-24T08:21:29.942Z,7.38
2017-02-24T08:22:29.966Z,7.29
2017-02-24T08:23:29.978Z,7.36
2017-02-24T08:24:29.590Z,7.25
2017-02-24T08:25:29.996Z,7.31
2017-02-24T08:26:30.103Z,7.33
2017-02-24T08:27:29.634Z,7.31
2017-02-24T08:28:30.188Z,7.25
2017-02-24T08:29:29.883Z,7.32
2017-02-24T08:30:30.070Z,7.35
2017-02-24T08:31:30.100Z,7.33
2017-02-24T08:32:29.711Z,7.36
2017-02-24T08:33:30.108Z,7.33
2017-02-24T08:34:30.117Z,7.33
2017-02-24T08:35:30.145Z,7.38
2017-02-24T08:36:30.146Z,7.36
2017-02-24T08:37:30.166Z,7.47
2017-02-24T08:38:30.345Z,7.4
2017-02-24T08:39:30.348Z,7.39
2017-02-24T08:40:30.384Z,7.42
2017-02-24T08:41:30.373Z,7.48
2017-02-24T08:42:30.404Z,7.4
2017-02-24T08:43:29.987Z,7.48
2017-02-24T08:44:30.379Z,7.51
2017-02-24T08:45:30.263Z,7.48
2017-02-24T08:46:29.918Z,7.51
2017-02-24T08:47:30.310Z,7.57
2017-02-24T08:48:30.296Z,7.58
2017-02-24T08:49:29.914Z,7.57
2017-02-24T08:50:30.322Z,7.6
2017-02-24T08:51:30.348Z,7.61
2017-02-24T08:52:30.360Z,7.6
2017-02-24T08:53:30.474Z,7.63
2017-02-24T08:54:30.379Z,7.7
2017-02-24T08:55:30.391Z,7.73
2017-02-24T08:56:30.409Z,7.73
2017-02-24T08:57:30.415Z,7.67
2017-02-24T08:58:30.419Z,7.7
2017-02-24T08:59:30.483Z,7.69
2017-02-24T09:00:30.462Z,7.73
2017-02-24T09:01:30.473Z,7.76
2017-02-24T09:02:30.485Z,7.73
2017-02-24T09:03:30.496Z,7.66
2017-02-24T09:04:30.523Z,7.76
2017-02-24T09:05:30.125Z,7.76
2017-02-24T09:06:30.540Z,7.76
2017-02-24T09:07:30.581Z,7.7
2017-02-24T09:08:30.570Z,7.66
2017-02-24T09:09:30.578Z,7.73
2017-02-24T09:10:30.796Z,7.73
2017-02-24T09:11:30.600Z,7.66
2017-02-24T09:12:30.609Z,7.7
2017-02-24T09:13:30.617Z,7.67
2017-02-24T09:14:30.255Z,7.73
2017-02-24T09:15:30.258Z,7.7
2017-02-24T09:16:30.677Z,7.7
2017-02-24T09:17:30.842Z,7.67
2017-02-24T09:18:30.805Z,7.8
2017-02-24T09:19:30.700Z,7.76
2017-02-24T09:20:30.758Z,7.8
2017-02-24T09:21:30.845Z,7.83
2017-02-24T09:22:30.763Z,7.79
2017-02-24T09:23:30.765Z,7.83
2017-02-24T09:24:30.874Z,7.82
2017-02-24T09:25:30.408Z,7.79
2017-02-24T09:26:30.839Z,7.76
2017-02-24T09:27:30.418Z,7.79
2017-02-24T09:28:30.824Z,7.8
2017-02-24T09:29:30.838Z,7.77
2017-02-24T09:30:30.469Z,7.88
2017-02-24T09:31:30.867Z,7.9
2017-02-24T09:32:30.483Z,7.97
2017-02-24T09:33:30.891Z,8
2017-02-24T09:34:30.911Z,7.95
2017-02-24T09:35:30.920Z,8
2017-02-24T09:36:30.545Z,8.03
2017-02-24T09:37:30.951Z,8.06
2017-02-24T09:38:30.966Z,8.12
2017-02-24T09:39:30.979Z,8.12
2017-02-24T09:40:31.082Z,8.16
2017-02-24T09:41:31.011Z,8.26
2017-02-24T09:42:31.049Z,8.23
2017-02-24T09:43:31.237Z,8.34
2017-02-24T09:44:31.043Z,8.31
2017-02-24T09:45:31.132Z,8.31
2017-02-24T09:46:30.677Z,8.31
2017-02-24T09:47:31.075Z,8.41
2017-02-24T09:48:31.100Z,8.31
2017-02-24T09:49:31.112Z,8.31
2017-02-24T09:50:31.118Z,8.44
2017-02-24T09:51:31.135Z,8.36
2017-02-24T09:52:31.337Z,8.34
2017-02-24T09:53:31.154Z,8.45
2017-02-24T09:54:31.163Z,8.48
2017-02-24T09:55:31.186Z,8.44
2017-02-24T09:56:31.198Z,8.48
2017-02-24T09:57:31.206Z,8.53
2017-02-24T09:58:30.515Z,8.56
2017-02-24T09:59:31.242Z,8.6
2017-02-24T10:00:31.259Z,8.52
2017-02-24T10:01:31.343Z,8.56
2017-02-24T10:02:31.343Z,8.53
2017-02-24T10:03:31.343Z,8.6
2017-02-24T10:04:30.510Z,8.61
2017-02-24T10:05:31.325Z,8.61
2017-02-24T10:06:31.326Z,8.58
2017-02-24T10:07:31.357Z,8.6
2017-02-24T10:08:31.362Z,8.61
2017-02-24T10:09:31.371Z,8.58
2017-02-24T10:10:31.401Z,8.64
2017-02-24T10:11:31.400Z,8.61
2017-02-24T10:12:31.421Z,8.63
2017-02-24T10:13:31.029Z,8.6
2017-02-24T10:14:31.548Z,8.53
2017-02-24T10:15:31.561Z,8.55
2017-02-24T10:16:31.084Z,8.51
2017-02-24T10:17:31.102Z,8.49
2017-02-24T10:18:31.504Z,8.49
2017-02-24T10:19:31.638Z,8.45
2017-02-24T10:20:31.620Z,8.48
2017-02-24T10:21:31.535Z,8.52
2017-02-24T10:22:31.554Z,8.45
2017-02-24T10:23:31.567Z,8.45
2017-02-24T10:24:31.859Z,8.42
2017-02-24T10:25:31.593Z,8.46
2017-02-24T10:26:31.610Z,8.34
2017-02-24T10:27:31.226Z,8.46
2017-02-24T10:28:31.749Z,8.33
2017-02-24T10:29:31.252Z,8.34
2017-02-24T10:30:31.770Z,8.42
2017-02-24T10:31:31.690Z,8.49
2017-02-24T10:32:31.693Z,8.38
2017-02-24T10:33:31.753Z,8.31
2017-02-24T10:34:31.724Z,8.33
2017-02-24T10:35:31.736Z,8.33
2017-02-24T10:36:31.741Z,8.38
2017-02-24T10:37:31.757Z,8.33
2017-02-24T10:38:31.817Z,8.33
2017-02-24T10:39:31.797Z,8.36
2017-02-24T10:40:31.097Z,8.36
2017-02-24T10:41:32.019Z,8.41
2017-02-24T10:42:31.838Z,8.37
2017-02-24T10:43:31.851Z,8.36
2017-02-24T10:44:32.043Z,8.36
2017-02-24T10:45:31.887Z,8.48
2017-02-24T10:46:32.007Z,8.44
2017-02-24T10:47:31.905Z,8.45
2017-02-24T10:48:31.912Z,8.48
2017-02-24T10:49:31.936Z,8.46
2017-02-24T10:50:31.937Z,8.49
2017-02-24T10:51:31.963Z,8.46
2017-02-24T10:52:31.969Z,8.48
2017-02-24T10:53:31.986Z,8.51
2017-02-24T10:54:31.989Z,8.56
2017-02-24T10:55:32.007Z,8.6
2017-02-24T10:56:32.027Z,8.61
2017-02-24T10:57:31.253Z,8.55
2017-02-24T10:58:32.053Z,8.53
2017-02-24T10:59:32.068Z,8.6
2017-02-24T11:00:32.082Z,8.56
2017-02-24T11:01:32.102Z,8.49
2017-02-24T11:02:32.142Z,8.49
2017-02-24T11:03:32.135Z,8.51
2017-02-24T11:04:32.158Z,8.45
2017-02-24T11:05:32.145Z,8.41
2017-02-24T11:06:32.170Z,8.48
2017-02-24T11:07:32.180Z,8.46
2017-02-24T11:08:32.201Z,8.51
2017-02-24T11:09:32.211Z,8.49
2017-02-24T11:10:32.231Z,8.51
2017-02-24T11:11:32.237Z,8.52
2017-02-24T11:12:32.337Z,8.56
2017-02-24T11:13:31.972Z,8.51
2017-02-24T11:14:31.977Z,8.49
2017-02-24T11:15:32.354Z,8.52
2017-02-24T11:16:32.343Z,8.55
2017-02-24T11:17:32.313Z,8.53
2017-02-24T11:18:32.578Z,8.42
2017-02-24T11:19:32.726Z,8.45
2017-02-24T11:20:32.364Z,8.37
2017-02-24T11:21:32.372Z,8.36
2017-02-24T11:22:32.398Z,8.34
2017-02-24T11:23:32.416Z,8.33
2017-02-24T11:24:32.422Z,8.33
2017-02-24T11:25:32.098Z,8.31
2017-02-24T11:26:32.457Z,8.19
2017-02-24T11:27:32.467Z,8.18
2017-02-24T11:28:32.486Z,8.19
2017-02-24T11:29:32.496Z,8.23
2017-02-24T11:30:32.512Z,8.23
2017-02-24T11:31:32.706Z,8.23
2017-02-24T11:32:32.634Z,8.12
2017-02-24T11:33:32.729Z,8.23
2017-02-24T11:34:32.739Z,8.23
2017-02-24T11:35:32.675Z,8.2
2017-02-24T11:36:32.594Z,8.24
2017-02-24T11:37:32.801Z,8.2
2017-02-24T11:38:32.622Z,8.27
2017-02-24T11:39:32.625Z,8.28
2017-02-24T11:40:32.353Z,8.23
2017-02-24T11:41:32.752Z,8.19
2017-02-24T11:42:32.349Z,8.33
2017-02-24T11:43:32.755Z,8.3
2017-02-24T11:44:32.704Z,8.36
2017-02-24T11:45:33.003Z,8.41
2017-02-24T11:46:32.731Z,8.46
2017-02-24T11:47:32.731Z,8.51
2017-02-24T11:48:32.902Z,8.51
2017-02-24T11:49:32.762Z,8.63
2017-02-24T11:50:32.777Z,8.67
2017-02-24T11:51:32.793Z,8.69
2017-02-24T11:52:32.883Z,8.69
2017-02-24T11:53:32.821Z,8.71
2017-02-24T11:54:32.848Z,8.7
2017-02-24T11:55:32.627Z,8.78
2017-02-24T11:56:32.929Z,8.85
2017-02-24T11:57:32.875Z,8.79
2017-02-24T11:58:32.497Z,8.79
2017-02-24T11:59:32.908Z,8.79
2017-02-24T12:00:32.928Z,8.84
2017-02-24T12:01:32.564Z,8.79
2017-02-24T12:02:32.940Z,8.78
2017-02-24T12:03:32.575Z,8.88
2017-02-24T12:04:32.970Z,8.82
2017-02-24T12:05:33.010Z,8.94
2017-02-24T12:06:32.606Z,8.87
2017-02-24T12:07:33.078Z,8.91
2017-02-24T12:08:33.046Z,8.94
2017-02-24T12:09:33.042Z,8.91
2017-02-24T12:10:33.053Z,8.94
2017-02-24T12:11:33.086Z,8.91
2017-02-24T12:12:33.105Z,8.88
2017-02-24T12:13:33.101Z,8.88
2017-02-24T12:14:33.116Z,8.79
2017-02-24T12:15:33.126Z,8.82
2017-02-24T12:16:33.159Z,8.79
2017-02-24T12:17:33.158Z,8.69
2017-02-24T12:18:33.178Z,8.74
2017-02-24T12:19:33.296Z,8.69
2017-02-24T12:20:33.217Z,8.63
2017-02-24T12:21:33.229Z,8.55
2017-02-24T12:22:33.240Z,8.53
2017-02-24T12:23:33.247Z,8.51
2017-02-24T12:24:33.267Z,8.53
2017-02-24T12:25:33.270Z,8.51
2017-02-24T12:26:33.305Z,8.52
2017-02-24T12:27:33.328Z,8.48
2017-02-24T12:28:33.318Z,8.42
2017-02-24T12:29:33.323Z,8.42
2017-02-24T12:30:33.352Z,8.49
2017-02-24T12:31:33.352Z,8.41
2017-02-24T12:32:33.383Z,8.52
2017-02-24T12:33:33.406Z,8.46
2017-02-24T12:34:33.402Z,8.52
2017-02-24T12:35:33.411Z,8.52
2017-02-24T12:36:33.422Z,8.66
2017-02-24T12:37:33.438Z,8.66
2017-02-24T12:38:33.457Z,8.6
2017-02-24T12:39:33.495Z,8.64
2017-02-24T12:40:33.485Z,8.67
2017-02-24T12:41:33.497Z,8.67
2017-02-24T12:42:33.515Z,8.66
2017-02-24T12:43:33.548Z,8.64
2017-02-24T12:44:33.538Z,8.63
2017-02-24T12:45:33.560Z,8.58
2017-02-24T12:46:33.569Z,8.67
2017-02-24T12:47:33.587Z,8.66
2017-02-24T12:48:33.220Z,8.66
2017-02-24T12:49:33.620Z,8.7
2017-02-24T12:50:33.623Z,8.7
2017-02-24T12:51:33.666Z,8.7
2017-02-24T12:52:33.668Z,8.71
2017-02-24T12:53:33.279Z,8.7
2017-02-24T12:54:33.687Z,8.67
2017-02-24T12:55:33.713Z,8.7
2017-02-24T12:56:33.718Z,8.63
2017-02-24T12:57:33.724Z,8.64
2017-02-24T12:58:33.740Z,8.63
2017-02-24T12:59:33.753Z,8.63
2017-02-24T13:00:33.783Z,8.48
2017-02-24T13:01:33.772Z,8.56
2017-02-24T13:02:33.795Z,8.51
2017-02-24T13:03:33.809Z,8.53
2017-02-24T13:04:34.021Z,8.58
2017-02-24T13:05:33.831Z,8.49
2017-02-24T13:06:33.865Z,8.53
2017-02-24T13:07:33.866Z,8.46
2017-02-24T13:08:33.888Z,8.51
2017-02-24T13:09:33.594Z,8.44
2017-02-24T13:10:33.911Z,8.44
2017-02-24T13:11:33.916Z,8.45
2017-02-24T13:12:33.941Z,8.44
2017-02-24T13:13:33.954Z,8.45
2017-02-24T13:14:33.974Z,8.46
2017-02-24T13:15:33.982Z,8.51
2017-02-24T13:16:33.592Z,8.51
2017-02-24T13:17:34.009Z,8.6
2017-02-24T13:18:34.015Z,8.51
2017-02-24T13:19:34.028Z,8.63
2017-02-24T13:20:34.050Z,8.69
2017-02-24T13:21:34.058Z,8.64
2017-02-24T13:22:33.695Z,8.67